Terminal Aerodrome Forecast
Issued by NWS

Home | Current Version | Previous Version | Text Only | Print | Product List | Glossary On
Versions: 1 2 3 4 5 6 7 8 9 10 11 12 13 14 15 16 17 18 19 20 21 22 23 24 25 26 27 28 29 30 31 32 33 34 35 36
000
FTUS43 KDMX 162340
TAFOTM
TAF
KOTM 162340Z 1700/1724 18005KT P6SM SKC
     FM170600 16006KT P6SM SCT080
     FM170900 19004KT P6SM SCT035 BKN060
     FM171100 16007KT P6SM BKN030
     FM172200 13007KT P6SM BKN040=

USA.gov is the U.S. government's official web portal to all federal, state and local government web resources and services.